地図

経路データ

SID SEASON NUMBER BASIN SUBBASIN NAME ISO_TIME NATURE LAT LON WMO_WIND WMO_PRES WMO_AGENCY TRACK_TYPE DIST2LAND LANDFALL IFLAG USA_AGENCY USA_ATCF_ID USA_LAT USA_LON USA_RECORD USA_STATUS USA_WIND USA_PRES USA_SSHS USA_R34_NE USA_R34_SE USA_R34_SW USA_R34_NW USA_R50_NE USA_R50_SE USA_R50_SW USA_R50_NW USA_R64_NE USA_R64_SE USA_R64_SW USA_R64_NW USA_POCI USA_ROCI USA_RMW USA_EYE TOKYO_LAT TOKYO_LON TOKYO_GRADE TOKYO_WIND TOKYO_PRES TOKYO_R50_DIR TOKYO_R50_LONG TOKYO_R50_SHORT TOKYO_R30_DIR TOKYO_R30_LONG TOKYO_R30_SHORT TOKYO_LAND CMA_LAT CMA_LON CMA_CAT CMA_WIND CMA_PRES HKO_LAT HKO_LON HKO_CAT HKO_WIND HKO_PRES NEWDELHI_LAT NEWDELHI_LON NEWDELHI_GRADE NEWDELHI_WIND NEWDELHI_PRES NEWDELHI_CI NEWDELHI_DP NEWDELHI_POCI REUNION_LAT REUNION_LON REUNION_TYPE REUNION_WIND REUNION_PRES REUNION_TNUM REUNION_CI REUNION_RMW REUNION_R34_NE REUNION_R34_SE REUNION_R34_SW REUNION_R34_NW REUNION_R50_NE REUNION_R50_SE REUNION_R50_SW REUNION_R50_NW REUNION_R64_NE REUNION_R64_SE REUNION_R64_SW REUNION_R64_NW BOM_LAT BOM_LON BOM_TYPE BOM_WIND BOM_PRES BOM_TNUM BOM_CI BOM_RMW BOM_R34_NE BOM_R34_SE BOM_R34_SW BOM_R34_NW BOM_R50_NE BOM_R50_SE BOM_R50_SW BOM_R50_NW BOM_R64_NE BOM_R64_SE BOM_R64_SW BOM_R64_NW BOM_ROCI BOM_POCI BOM_EYE BOM_POS_METHOD BOM_PRES_METHOD NADI_LAT NADI_LON NADI_CAT NADI_WIND NADI_PRES WELLINGTON_LAT WELLINGTON_LON WELLINGTON_WIND WELLINGTON_PRES DS824_LAT DS824_LON DS824_STAGE DS824_WIND DS824_PRES TD9636_LAT TD9636_LON TD9636_STAGE TD9636_WIND TD9636_PRES TD9635_LAT TD9635_LON TD9635_WIND TD9635_PRES TD9635_ROCI NEUMANN_LAT NEUMANN_LON NEUMANN_CLASS NEUMANN_WIND NEUMANN_PRES MLC_LAT MLC_LON MLC_CLASS MLC_WIND MLC_PRES USA_GUST BOM_GUST BOM_GUST_PER REUNION_GUST REUNION_GUST_PER USA_SEAHGT USA_SEARAD_NE USA_SEARAD_SE USA_SEARAD_SW USA_SEARAD_NW STORM_SPEED STORM_DIR
1967135N11092 1967 32 NI BB NOT_NAMED 1967-05-14 18:00:00 TS 11.0000 91.5000 main 622 612 O________O____ jtwc_io IO021967 11.0000 91.5000 -1 11.0000 91.5000 TC 2 0
1967135N11092 1967 32 NI BB NOT_NAMED 1967-05-14 21:00:00 TS 11.0825 91.4975 main 612 603 P________P____ IO021967 11.0825 91.4975 -1 11.0825 91.4975 TC 2 8
1967135N11092 1967 32 NI BB NOT_NAMED 1967-05-15 00:00:00 TS 11.2000 91.5000 main 603 583 O________O____ jtwc_io IO021967 11.2000 91.5000 -1 11.2000 91.5000 TC 25 3 5
1967135N11092 1967 32 NI BB NOT_NAMED 1967-05-15 03:00:00 TS 11.3800 91.5067 main 583 565 P________PO___ IO021967 11.3775 91.5075 -1 11.3775 91.5075 TC 25 11.4000 91.5000 1 4 356
1967135N11092 1967 32 NI BB NOT_NAMED 1967-05-15 06:00:00 TS 11.6084 91.4947 main 565 546 O________OP___ jtwc_io IO021967 11.6000 91.5000 -1 11.6000 91.5000 TC 25 11.6422 91.4735 1 5 353
1967135N11092 1967 32 NI BB NOT_NAMED 1967-05-15 09:00:00 TS 11.8575 91.4493 main 543 525 P________PP___ IO021967 11.8500 91.4500 -1 11.8500 91.4500 TC 25 11.8775 91.4475 1 5 350
1967135N11092 1967 32 NI BB NOT_NAMED 1967-05-15 12:00:00 TS 12.0997 91.4076 main 525 508 O________OP___ jtwc_io IO021967 12.1000 91.4000 -1 12.1000 91.4000 TC 25 12.0991 91.4228 1 5 353
1967135N11092 1967 32 NI BB NOT_NAMED 1967-05-15 15:00:00 TS 12.3100 91.3950 main 508 491 P________PO___ IO021967 12.3150 91.3925 -1 12.3150 91.3925 TC 25 12.3000 91.4000 1 4 356
1967135N11092 1967 32 NI BB NOT_NAMED 1967-05-15 18:00:00 TS 12.4924 91.3936 main 491 482 O________OP___ jtwc_io IO021967 12.5000 91.4000 -1 12.5000 91.4000 TC 25 12.4772 91.3807 1 3 357
1967135N11092 1967 32 NI BB NOT_NAMED 1967-05-15 21:00:00 TS 12.6475 91.3900 main 482 466 P________PP___ IO021967 12.6500 91.4000 -1 12.6500 91.4000 TC 25 12.6425 91.3701 1 3 359
1967135N11092 1967 32 NI BB NOT_NAMED 1967-05-16 00:00:00 TS 12.8038 91.3915 main 466 450 O________OP___ jtwc_io IO021967 12.8000 91.4000 -1 12.8000 91.4000 TC 25 12.8115 91.3745 1 3 2
1967135N11092 1967 32 NI BB NOT_NAMED 1967-05-16 03:00:00 TS 12.9900 91.3900 main 450 434 P________PO___ IO021967 12.9850 91.3850 -1 12.9850 91.3850 TC 30 13.0000 91.4000 1 4 0
1967135N11092 1967 32 NI BB NOT_NAMED 1967-05-16 06:00:00 TS 13.2095 91.4124 main 434 411 O________OP___ jtwc_io IO021967 13.2000 91.4000 -1 13.2000 91.4000 TC 35 13.2284 91.4373 1 5 12
1967135N11092 1967 32 NI BB NOT_NAMED 1967-05-16 09:00:00 TS 13.4542 91.4892 main 403 380 P________PP___ IO021967 13.4425 91.4850 -1 13.4425 91.4850 TC 35 13.4774 91.4976 1 5 20
1967135N11092 1967 32 NI BB NOT_NAMED 1967-05-16 12:00:00 TS 13.7126 91.5947 main 380 349 O________OP___ jtwc_io IO021967 13.7000 91.6000 -1 13.7000 91.6000 TC 35 13.7378 91.5842 1 6 21
1967135N11092 1967 32 NI BB NOT_NAMED 1967-05-16 15:00:00 TS 13.9666 91.6901 main 349 327 P________PO___ IO021967 13.9500 91.6851 -1 13.9500 91.6851 TC 35 14.0000 91.7000 3 5 24
1967135N11092 1967 32 NI BB NOT_NAMED 1967-05-16 18:00:00 TS 14.1977 91.8129 main 327 296 O________OP___ jtwc_io IO021967 14.2000 91.8000 -1 14.2000 91.8000 TC 35 14.1932 91.8386 3 5 33
1967135N11092 1967 32 NI BB NOT_NAMED 1967-05-16 21:00:00 TS 14.4217 91.9920 main 296 259 P________PP___ IO021967 14.4350 91.9850 -1 14.4350 91.9850 TC 50 14.3951 92.0058 3 6 38
1967135N11092 1967 32 NI BB NOT_NAMED 1967-05-17 00:00:00 TS 14.6831 92.1984 main 259 223 O________OP___ jtwc_io IO021967 14.7000 92.2000 -1 14.7000 92.2000 TC 65 14.6494 92.1950 3 7 34
1967135N11092 1967 32 NI BB NOT_NAMED 1967-05-17 03:00:00 TS 14.9933 92.3952 main 223 184 P________PO___ IO021967 14.9900 92.3927 -1 14.9900 92.3927 TC 65 15.0000 92.4000 4 9 28
1967135N11092 1967 32 NI BB NOT_NAMED 1967-05-17 06:00:00 TS 15.4305 92.6075 main 184 149 O________OP___ jtwc_io IO021967 15.4000 92.6000 -1 15.4000 92.6000 TC 65 15.4914 92.6224 4 11 23
1967135N11092 1967 32 NI BB NOT_NAMED 1967-05-17 09:00:00 TS 16.0251 92.8572 main 139 128 P________PP___ IO021967 15.9976 92.8573 -1 15.9976 92.8573 TC 65 16.0803 92.8569 4 14 20
1967135N11092 1967 32 NI BB NOT_NAMED 1967-05-17 12:00:00 TS 16.7097 93.0960 main 129 125 O________OP___ jtwc_io IO021967 16.7000 93.1000 -1 16.7000 93.1000 TC 65 16.7290 93.0881 4 14 16
1967135N11092 1967 32 NI BB NOT_NAMED 1967-05-17 15:00:00 TS 17.4000 93.2768 main 129 97 P________PO___ IO021967 17.3999 93.2652 -1 17.3999 93.2652 TC 50 17.4000 93.3000 4 14 13
1967135N11092 1967 32 NI BB NOT_NAMED 1967-05-17 18:00:00 TS 18.0812 93.4240 main 94 30 O________OP___ jtwc_io IO021967 18.1000 93.4000 -1 18.1000 93.4000 TC 35 18.0436 93.4721 4 14 12
1967135N11092 1967 32 NI BB NOT_NAMED 1967-05-17 21:00:00 TS 18.7433 93.5745 main 30 0 P________PP___ IO021967 18.7650 93.5501 -1 18.7650 93.5501 TC 35 18.6998 93.6232 4 13 12
1967135N11092 1967 32 NI BB NOT_NAMED 1967-05-18 00:00:00 TS 19.3854 93.7209 main 11 0 O________OP___ jtwc_io IO021967 19.4000 93.7000 -1 19.4000 93.7000 TC 35 19.3561 93.7627 4 13 12
1967135N11092 1967 32 NI BB NOT_NAMED 1967-05-18 03:00:00 TS 20.0050 93.8668 main 0 0 P________PO___ IO021967 20.0075 93.8501 -1 20.0075 93.8501 TC 30 20.0000 93.9000 2 13 13
1967135N11092 1967 32 NI BB NOT_NAMED 1967-05-18 06:00:00 TS 20.6088 94.0171 main 0 0 O________OP___ jtwc_io IO021967 20.6000 94.0000 -1 20.6000 94.0000 TC 25 20.6219 94.0428 2 12 13
1967135N11092 1967 32 NI BB NOT_NAMED 1967-05-18 09:00:00 TS 21.2094 94.1676 main 0 0 P________PP___ IO021967 21.1975 94.1497 -1 21.1975 94.1497 TC 25 21.2251 94.1913 2 12 13
1967135N11092 1967 32 NI BB NOT_NAMED 1967-05-18 12:00:00 TS 21.8079 94.3221 main 0 0 O________OP___ jtwc_io IO021967 21.8000 94.3000 -1 21.8000 94.3000 TC 25 21.8157 94.3443 2 12 15
1967135N11092 1967 32 NI BB NOT_NAMED 1967-05-18 15:00:00 NR 22.4000 94.5000 main 0 __________O___ IO021967 -1 TC 22.4000 94.5000 1 12 15

IBTrACS Databaseについて

本データベースは、米国NOAAが公開する1842年以降の世界の熱帯低気圧のベストトラックデータアーカイブInternational Best Track Archive for Climate Stewardship (IBTrACS)を、ウェブで閲覧しやすい形式に変換したものです。

最終更新日:2021-11-26